sensor_id;sensor_type;location;lat;lon;timestamp;pressure;altitude;pressure_sealevel;temperature;humidity
13952;BME280;39535;52.192;9.886;2022-10-16T00:01:31;100035.53;;;14.34;91.67
13952;BME280;39535;52.192;9.886;2022-10-16T00:03:59;100046.16;;;14.30;91.54
13952;BME280;39535;52.192;9.886;2022-10-16T00:06:26;100042.63;;;14.32;91.50
13952;BME280;39535;52.192;9.886;2022-10-16T00:08:53;100040.13;;;14.28;91.70
13952;BME280;39535;52.192;9.886;2022-10-16T00:11:22;100036.84;;;14.23;92.34
13952;BME280;39535;52.192;9.886;2022-10-16T00:13:51;100036.09;;;14.20;92.38
13952;BME280;39535;52.192;9.886;2022-10-16T00:16:19;100031.03;;;14.15;92.10
13952;BME280;39535;52.192;9.886;2022-10-16T00:18:45;100024.13;;;14.13;92.46
13952;BME280;39535;52.192;9.886;2022-10-16T00:21:14;100038.97;;;14.14;92.19
13952;BME280;39535;52.192;9.886;2022-10-16T00:23:40;100033.84;;;14.10;91.78
13952;BME280;39535;52.192;9.886;2022-10-16T00:26:09;100045.19;;;14.11;91.99
13952;BME280;39535;52.192;9.886;2022-10-16T00:28:37;100038.25;;;14.10;91.94
13952;BME280;39535;52.192;9.886;2022-10-16T00:31:05;100053.19;;;14.08;92.02
13952;BME280;39535;52.192;9.886;2022-10-16T00:33:31;100051.47;;;14.07;91.73
13952;BME280;39535;52.192;9.886;2022-10-16T00:35:58;100055.94;;;14.05;91.75
13952;BME280;39535;52.192;9.886;2022-10-16T00:38:24;100060.38;;;14.03;91.82
13952;BME280;39535;52.192;9.886;2022-10-16T00:40:51;100064.59;;;14.07;91.75
13952;BME280;39535;52.192;9.886;2022-10-16T00:43:34;100074.19;;;14.08;91.82
13952;BME280;39535;52.192;9.886;2022-10-16T00:46:05;100068.88;;;14.09;91.68
13952;BME280;39535;52.192;9.886;2022-10-16T00:48:34;100073.25;;;14.09;91.79
13952;BME280;39535;52.192;9.886;2022-10-16T00:51:01;100080.22;;;14.10;91.61
13952;BME280;39535;52.192;9.886;2022-10-16T00:53:27;100076.69;;;14.11;91.62
13952;BME280;39535;52.192;9.886;2022-10-16T00:55:54;100079.31;;;14.11;91.80
13952;BME280;39535;52.192;9.886;2022-10-16T00:58:20;100069.94;;;14.05;92.30
13952;BME280;39535;52.192;9.886;2022-10-16T01:00:47;100065.53;;;14.06;92.15
13952;BME280;39535;52.192;9.886;2022-10-16T01:03:26;100065.47;;;14.07;92.28
13952;BME280;39535;52.192;9.886;2022-10-16T01:06:02;100056.16;;;13.99;92.56
13952;BME280;39535;52.192;9.886;2022-10-16T01:08:39;100047.41;;;14.00;92.86
13952;BME280;39535;52.192;9.886;2022-10-16T01:11:15;100044.94;;;13.95;93.19
13952;BME280;39535;52.192;9.886;2022-10-16T01:13:47;100019.44;;;13.99;93.71
13952;BME280;39535;52.192;9.886;2022-10-16T01:16:18;100020.16;;;14.02;93.49
13952;BME280;39535;52.192;9.886;2022-10-16T01:18:52;100014.13;;;14.00;93.67
13952;BME280;39535;52.192;9.886;2022-10-16T01:21:22;100008.03;;;14.00;94.00
13952;BME280;39535;52.192;9.886;2022-10-16T01:23:56;99998.59;;;13.96;94.22
13952;BME280;39535;52.192;9.886;2022-10-16T01:26:36;99992.47;;;13.95;94.69
13952;BME280;39535;52.192;9.886;2022-10-16T01:29:09;99999.53;;;13.93;94.65
13952;BME280;39535;52.192;9.886;2022-10-16T01:31:41;100005.56;;;13.95;94.70
13952;BME280;39535;52.192;9.886;2022-10-16T01:34:15;99996.91;;;13.93;94.55
13952;BME280;39535;52.192;9.886;2022-10-16T01:36:48;100001.50;;;13.88;94.61
13952;BME280;39535;52.192;9.886;2022-10-16T01:39:20;99997.16;;;13.87;94.43
13952;BME280;39535;52.192;9.886;2022-10-16T01:41:51;100012.06;;;13.86;94.65
13952;BME280;39535;52.192;9.886;2022-10-16T01:44:25;100017.41;;;13.83;94.62
13952;BME280;39535;52.192;9.886;2022-10-16T01:46:54;100004.53;;;13.77;95.63
13952;BME280;39535;52.192;9.886;2022-10-16T01:49:22;100012.31;;;13.80;95.57
13952;BME280;39535;52.192;9.886;2022-10-16T01:51:54;100013.84;;;13.86;95.51
13952;BME280;39535;52.192;9.886;2022-10-16T01:54:23;100017.25;;;13.88;94.99
13952;BME280;39535;52.192;9.886;2022-10-16T01:56:52;100025.13;;;13.88;95.34
13952;BME280;39535;52.192;9.886;2022-10-16T01:59:22;100019.97;;;13.85;95.55
13952;BME280;39535;52.192;9.886;2022-10-16T02:01:52;100020.72;;;13.88;95.42
13952;BME280;39535;52.192;9.886;2022-10-16T02:04:24;100030.31;;;13.89;95.43
13952;BME280;39535;52.192;9.886;2022-10-16T02:06:53;100033.66;;;13.93;94.94
13952;BME280;39535;52.192;9.886;2022-10-16T02:09:20;100045.91;;;13.93;95.01
13952;BME280;39535;52.192;9.886;2022-10-16T02:11:47;100060.03;;;13.90;94.78
13952;BME280;39535;52.192;9.886;2022-10-16T02:14:15;100061.00;;;13.87;94.59
13952;BME280;39535;52.192;9.886;2022-10-16T02:16:45;100052.63;;;13.78;95.26
13952;BME280;39535;52.192;9.886;2022-10-16T02:19:13;100042.94;;;13.80;95.34
13952;BME280;39535;52.192;9.886;2022-10-16T02:21:43;100058.72;;;13.78;95.15
13952;BME280;39535;52.192;9.886;2022-10-16T02:24:14;100063.03;;;13.79;95.14
13952;BME280;39535;52.192;9.886;2022-10-16T02:26:47;100070.31;;;13.73;95.05
13952;BME280;39535;52.192;9.886;2022-10-16T02:29:17;100073.66;;;13.76;95.16
13952;BME280;39535;52.192;9.886;2022-10-16T02:31:50;100065.00;;;13.74;95.16
13952;BME280;39535;52.192;9.886;2022-10-16T02:34:18;100065.06;;;13.73;95.37
13952;BME280;39535;52.192;9.886;2022-10-16T02:36:47;100056.28;;;13.74;95.09
13952;BME280;39535;52.192;9.886;2022-10-16T02:39:15;100065.91;;;13.73;95.18
13952;BME280;39535;52.192;9.886;2022-10-16T02:41:42;100073.16;;;13.66;94.69
13952;BME280;39535;52.192;9.886;2022-10-16T02:44:09;100062.78;;;13.63;94.99
13952;BME280;39535;52.192;9.886;2022-10-16T02:46:35;100062.06;;;13.60;95.21
13952;BME280;39535;52.192;9.886;2022-10-16T02:49:03;100054.19;;;13.60;95.14
13952;BME280;39535;52.192;9.886;2022-10-16T02:51:29;100059.44;;;13.60;95.58
13952;BME280;39535;52.192;9.886;2022-10-16T02:53:56;100049.94;;;13.56;95.31
13952;BME280;39535;52.192;9.886;2022-10-16T02:56:22;100047.41;;;13.54;95.58
13952;BME280;39535;52.192;9.886;2022-10-16T02:58:49;100044.81;;;13.53;95.78
13952;BME280;39535;52.192;9.886;2022-10-16T03:01:15;100049.88;;;13.57;95.46
13952;BME280;39535;52.192;9.886;2022-10-16T03:03:42;100043.78;;;13.57;95.73
13952;BME280;39535;52.192;9.886;2022-10-16T03:06:10;100048.06;;;13.59;95.63
13952;BME280;39535;52.192;9.886;2022-10-16T03:08:36;100060.31;;;13.59;95.26
13952;BME280;39535;52.192;9.886;2022-10-16T03:11:03;100052.66;;;13.54;95.27
13952;BME280;39535;52.192;9.886;2022-10-16T03:13:29;100045.72;;;13.51;95.37
13952;BME280;39535;52.192;9.886;2022-10-16T03:15:56;100039.53;;;13.54;95.46
13952;BME280;39535;52.192;9.886;2022-10-16T03:18:22;100047.44;;;13.53;95.11
13952;BME280;39535;52.192;9.886;2022-10-16T03:20:49;100054.38;;;13.54;94.76
13952;BME280;39535;52.192;9.886;2022-10-16T03:23:16;100050.31;;;13.46;95.84
13952;BME280;39535;52.192;9.886;2022-10-16T03:25:43;100056.44;;;13.45;95.42
13952;BME280;39535;52.192;9.886;2022-10-16T03:28:09;100060.88;;;13.43;95.13
13952;BME280;39535;52.192;9.886;2022-10-16T03:30:36;100065.34;;;13.41;95.12
13952;BME280;39535;52.192;9.886;2022-10-16T03:33:04;100074.94;;;13.42;94.89
13952;BME280;39535;52.192;9.886;2022-10-16T03:35:31;100068.09;;;13.38;95.24
13952;BME280;39535;52.192;9.886;2022-10-16T03:37:58;100062.84;;;13.38;95.35
13952;BME280;39535;52.192;9.886;2022-10-16T03:40:26;100069.97;;;13.35;95.21
13952;BME280;39535;52.192;9.886;2022-10-16T03:42:53;100072.59;;;13.35;95.27
13952;BME280;39535;52.192;9.886;2022-10-16T03:45:22;100071.66;;;13.36;95.49
13952;BME280;39535;52.192;9.886;2022-10-16T03:47:48;100066.41;;;13.36;95.68
13952;BME280;39535;52.192;9.886;2022-10-16T03:50:15;100064.72;;;13.35;95.36
13952;BME280;39535;52.192;9.886;2022-10-16T03:52:41;100066.38;;;13.37;95.48
13952;BME280;39535;52.192;9.886;2022-10-16T03:55:08;100054.19;;;13.36;95.78
13952;BME280;39535;52.192;9.886;2022-10-16T03:57:36;100060.13;;;13.40;95.58
13952;BME280;39535;52.192;9.886;2022-10-16T04:00:03;100061.03;;;13.40;95.42
13952;BME280;39535;52.192;9.886;2022-10-16T04:02:29;100068.94;;;13.39;95.36
13952;BME280;39535;52.192;9.886;2022-10-16T04:04:56;100069.81;;;13.38;95.00
13952;BME280;39535;52.192;9.886;2022-10-16T04:07:22;100069.03;;;13.36;95.07
13952;BME280;39535;52.192;9.886;2022-10-16T04:09:49;100066.41;;;13.36;94.97
13952;BME280;39535;52.192;9.886;2022-10-16T04:12:17;100060.31;;;13.35;94.91
13952;BME280;39535;52.192;9.886;2022-10-16T04:14:45;100071.78;;;13.33;94.99
13952;BME280;39535;52.192;9.886;2022-10-16T04:17:11;100069.25;;;13.29;95.25
13952;BME280;39535;52.192;9.886;2022-10-16T04:19:37;100073.59;;;13.30;95.70
13952;BME280;39535;52.192;9.886;2022-10-16T04:22:04;100061.41;;;13.29;95.92
13952;BME280;39535;52.192;9.886;2022-10-16T04:24:30;100059.56;;;13.31;96.08
13952;BME280;39535;52.192;9.886;2022-10-16T04:26:57;100075.44;;;13.27;95.91
13952;BME280;39535;52.192;9.886;2022-10-16T04:29:23;100076.34;;;13.26;96.18
13952;BME280;39535;52.192;9.886;2022-10-16T04:31:51;100071.09;;;13.26;96.15
13952;BME280;39535;52.192;9.886;2022-10-16T04:34:17;100072.91;;;13.24;95.71
13952;BME280;39535;52.192;9.886;2022-10-16T04:36:46;100076.34;;;13.26;95.67
13952;BME280;39535;52.192;9.886;2022-10-16T04:39:13;100076.47;;;13.23;95.91
13952;BME280;39535;52.192;9.886;2022-10-16T04:41:40;100080.78;;;13.24;96.11
13952;BME280;39535;52.192;9.886;2022-10-16T04:44:06;100064.16;;;13.25;96.28
13952;BME280;39535;52.192;9.886;2022-10-16T04:46:33;100052.81;;;13.24;95.98
13952;BME280;39535;52.192;9.886;2022-10-16T04:49:01;100057.19;;;13.24;96.18
13952;BME280;39535;52.192;9.886;2022-10-16T04:51:27;100065.06;;;13.24;96.38
13952;BME280;39535;52.192;9.886;2022-10-16T04:53:54;100060.69;;;13.24;95.84
13952;BME280;39535;52.192;9.886;2022-10-16T04:56:20;100069.56;;;13.20;96.51
13952;BME280;39535;52.192;9.886;2022-10-16T04:58:48;100064.34;;;13.20;96.69
13952;BME280;39535;52.192;9.886;2022-10-16T05:01:14;100072.78;;;13.28;96.33
13952;BME280;39535;52.192;9.886;2022-10-16T05:03:40;100070.13;;;13.30;96.06
13952;BME280;39535;52.192;9.886;2022-10-16T05:06:08;100065.06;;;13.24;97.06
13952;BME280;39535;52.192;9.886;2022-10-16T05:08:35;100066.84;;;13.23;97.18
13952;BME280;39535;52.192;9.886;2022-10-16T05:11:01;100070.28;;;13.24;97.21
13952;BME280;39535;52.192;9.886;2022-10-16T05:13:28;100059.81;;;13.24;97.06
13952;BME280;39535;52.192;9.886;2022-10-16T05:15:54;100057.94;;;13.27;96.84
13952;BME280;39535;52.192;9.886;2022-10-16T05:18:21;100065.84;;;13.26;97.05
13952;BME280;39535;52.192;9.886;2022-10-16T05:20:47;100059.88;;;13.22;97.54
13952;BME280;39535;52.192;9.886;2022-10-16T05:23:15;100059.81;;;13.24;97.51
13952;BME280;39535;52.192;9.886;2022-10-16T05:25:41;100070.47;;;13.19;97.07
13952;BME280;39535;52.192;9.886;2022-10-16T05:28:08;100070.53;;;13.18;97.13
13952;BME280;39535;52.192;9.886;2022-10-16T05:30:37;100066.44;;;13.10;97.71
13952;BME280;39535;52.192;9.886;2022-10-16T05:33:03;100076.81;;;13.12;98.07
13952;BME280;39535;52.192;9.886;2022-10-16T05:35:29;100083.75;;;13.15;97.52
13952;BME280;39535;52.192;9.886;2022-10-16T05:37:56;100097.66;;;13.17;97.39
13952;BME280;39535;52.192;9.886;2022-10-16T05:40:24;100102.22;;;13.10;97.14
13952;BME280;39535;52.192;9.886;2022-10-16T05:42:54;100107.44;;;13.11;96.81
13952;BME280;39535;52.192;9.886;2022-10-16T05:45:21;100100.59;;;13.07;97.17
13952;BME280;39535;52.192;9.886;2022-10-16T05:47:47;100104.25;;;13.02;97.65
13952;BME280;39535;52.192;9.886;2022-10-16T05:50:14;100085.03;;;13.03;97.86
13952;BME280;39535;52.192;9.886;2022-10-16T05:52:40;100090.16;;;13.06;97.83
13952;BME280;39535;52.192;9.886;2022-10-16T05:55:07;100081.34;;;13.08;97.98
13952;BME280;39535;52.192;9.886;2022-10-16T05:57:35;100082.16;;;13.10;97.59
13952;BME280;39535;52.192;9.886;2022-10-16T06:00:03;100101.13;;;13.17;97.52
13952;BME280;39535;52.192;9.886;2022-10-16T06:02:29;100106.41;;;13.16;97.66
13952;BME280;39535;52.192;9.886;2022-10-16T06:04:56;100110.00;;;13.13;97.44
13952;BME280;39535;52.192;9.886;2022-10-16T06:07:23;100120.56;;;13.10;98.47
13952;BME280;39535;52.192;9.886;2022-10-16T06:09:50;100091.03;;;13.06;98.93
13952;BME280;39535;52.192;9.886;2022-10-16T06:12:17;100081.56;;;13.02;99.38
13952;BME280;39535;52.192;9.886;2022-10-16T06:14:45;100067.38;;;13.08;99.64
13952;BME280;39535;52.192;9.886;2022-10-16T06:17:12;100049.78;;;13.11;100.00
13952;BME280;39535;52.192;9.886;2022-10-16T06:19:39;100057.28;;;13.22;100.00
13952;BME280;39535;52.192;9.886;2022-10-16T06:22:06;100061.50;;;13.26;100.00
13952;BME280;39535;52.192;9.886;2022-10-16T06:24:33;100090.22;;;13.29;100.00
13952;BME280;39535;52.192;9.886;2022-10-16T06:27:00;100089.22;;;13.34;99.58
13952;BME280;39535;52.192;9.886;2022-10-16T06:29:26;100099.56;;;13.38;99.76
13952;BME280;39535;52.192;9.886;2022-10-16T06:31:54;100112.56;;;13.40;99.43
13952;BME280;39535;52.192;9.886;2022-10-16T06:34:20;100109.97;;;13.40;99.66
13952;BME280;39535;52.192;9.886;2022-10-16T06:36:47;100109.75;;;13.46;99.62
13952;BME280;39535;52.192;9.886;2022-10-16T06:39:13;100095.78;;;13.45;100.00
13952;BME280;39535;52.192;9.886;2022-10-16T06:41:40;100106.03;;;13.51;99.62
13952;BME280;39535;52.192;9.886;2022-10-16T06:44:07;100109.59;;;13.50;100.00
13952;BME280;39535;52.192;9.886;2022-10-16T06:46:34;100109.34;;;13.57;100.00
13952;BME280;39535;52.192;9.886;2022-10-16T06:49:02;100108.50;;;13.56;100.00
13952;BME280;39535;52.192;9.886;2022-10-16T06:51:28;100109.13;;;13.63;100.00
13952;BME280;39535;52.192;9.886;2022-10-16T06:53:56;100115.00;;;13.69;100.00
13952;BME280;39535;52.192;9.886;2022-10-16T06:56:24;100126.09;;;13.78;100.00
13952;BME280;39535;52.192;9.886;2022-10-16T06:58:52;100138.09;;;13.83;99.97
13952;BME280;39535;52.192;9.886;2022-10-16T07:01:20;100138.78;;;13.88;100.00
13952;BME280;39535;52.192;9.886;2022-10-16T07:03:48;100141.97;;;13.97;100.00
13952;BME280;39535;52.192;9.886;2022-10-16T07:06:17;100156.47;;;14.07;99.68
13952;BME280;39535;52.192;9.886;2022-10-16T07:08:46;100147.41;;;14.16;99.53
13952;BME280;39535;52.192;9.886;2022-10-16T07:11:15;100162.16;;;14.18;98.79
13952;BME280;39535;52.192;9.886;2022-10-16T07:13:43;100175.91;;;14.25;98.53
13952;BME280;39535;52.192;9.886;2022-10-16T07:16:12;100197.53;;;14.32;98.33
13952;BME280;39535;52.192;9.886;2022-10-16T07:18:39;100221.78;;;14.38;97.37
13952;BME280;39535;52.192;9.886;2022-10-16T07:21:09;100227.78;;;14.42;96.94
13952;BME280;39535;52.192;9.886;2022-10-16T07:23:37;100245.94;;;14.48;96.52
13952;BME280;39535;52.192;9.886;2022-10-16T07:26:05;100245.81;;;14.51;96.00
13952;BME280;39535;52.192;9.886;2022-10-16T07:28:32;100268.38;;;14.57;95.57
13952;BME280;39535;52.192;9.886;2022-10-16T07:31:01;100285.03;;;14.57;95.09
13952;BME280;39535;52.192;9.886;2022-10-16T07:33:28;100297.13;;;14.61;94.46
13952;BME280;39535;52.192;9.886;2022-10-16T07:35:54;100320.75;;;14.61;93.87
13952;BME280;39535;52.192;9.886;2022-10-16T07:38:21;100348.69;;;14.64;93.91
13952;BME280;39535;52.192;9.886;2022-10-16T07:40:56;100347.59;;;14.69;93.60
13952;BME280;39535;52.192;9.886;2022-10-16T07:43:22;100346.50;;;14.75;93.46
13952;BME280;39535;52.192;9.886;2022-10-16T07:45:49;100343.03;;;14.75;93.35
13952;BME280;39535;52.192;9.886;2022-10-16T07:48:17;100362.91;;;14.82;92.83
13952;BME280;39535;52.192;9.886;2022-10-16T07:50:44;100377.47;;;14.91;92.07
13952;BME280;39535;52.192;9.886;2022-10-16T07:53:11;100394.66;;;14.99;92.15
13952;BME280;39535;52.192;9.886;2022-10-16T07:55:37;100404.19;;;15.02;91.22
13952;BME280;39535;52.192;9.886;2022-10-16T07:58:05;100421.75;;;15.01;90.30
13952;BME280;39535;52.192;9.886;2022-10-16T08:00:33;100434.69;;;15.06;90.02
13952;BME280;39535;52.192;9.886;2022-10-16T08:03:00;100438.13;;;15.08;90.23
13952;BME280;39535;52.192;9.886;2022-10-16T08:05:26;100460.91;;;15.09;89.70
13952;BME280;39535;52.192;9.886;2022-10-16T08:07:53;100473.06;;;15.12;89.67
13952;BME280;39535;52.192;9.886;2022-10-16T08:10:21;100453.53;;;15.19;89.77
13952;BME280;39535;52.192;9.886;2022-10-16T08:12:48;100462.34;;;15.16;90.05
13952;BME280;39535;52.192;9.886;2022-10-16T08:15:16;100455.16;;;15.21;90.50
13952;BME280;39535;52.192;9.886;2022-10-16T08:17:43;100447.34;;;15.20;90.88
13952;BME280;39535;52.192;9.886;2022-10-16T08:20:10;100459.69;;;15.18;90.38
13952;BME280;39535;52.192;9.886;2022-10-16T08:22:37;100457.97;;;15.17;90.21
13952;BME280;39535;52.192;9.886;2022-10-16T08:25:03;100481.47;;;15.21;89.59
13952;BME280;39535;52.192;9.886;2022-10-16T08:27:31;100465.22;;;15.34;90.36
13952;BME280;39535;52.192;9.886;2022-10-16T08:29:57;100473.97;;;15.34;90.29
13952;BME280;39535;52.192;9.886;2022-10-16T08:32:25;100459.66;;;15.41;90.26
13952;BME280;39535;52.192;9.886;2022-10-16T08:34:51;100464.91;;;15.41;90.01
13952;BME280;39535;52.192;9.886;2022-10-16T08:37:18;100473.84;;;15.37;89.40
13952;BME280;39535;52.192;9.886;2022-10-16T08:39:44;100462.78;;;15.51;90.04
13952;BME280;39535;52.192;9.886;2022-10-16T08:42:17;100465.13;;;15.59;89.60
13952;BME280;39535;52.192;9.886;2022-10-16T08:45:14;100477.84;;;15.69;89.24
13952;BME280;39535;52.192;9.886;2022-10-16T08:47:49;100505.78;;;15.74;88.12
13952;BME280;39535;52.192;9.886;2022-10-16T08:50:22;100523.91;;;15.81;87.75
13952;BME280;39535;52.192;9.886;2022-10-16T08:52:52;100534.41;;;15.83;87.66
13952;BME280;39535;52.192;9.886;2022-10-16T08:55:29;100537.81;;;15.85;87.50
13952;BME280;39535;52.192;9.886;2022-10-16T08:57:57;100542.97;;;15.88;87.55
13952;BME280;39535;52.192;9.886;2022-10-16T09:00:24;100569.59;;;15.80;86.21
13952;BME280;39535;52.192;9.886;2022-10-16T09:03:02;100606.56;;;15.77;84.29
13952;BME280;39535;52.192;9.886;2022-10-16T09:05:54;100602.59;;;15.89;85.49
13952;BME280;39535;52.192;9.886;2022-10-16T09:08:30;100636.81;;;15.89;84.34
13952;BME280;39535;52.192;9.886;2022-10-16T09:11:02;100662.47;;;15.84;83.99
13952;BME280;39535;52.192;9.886;2022-10-16T09:13:36;100665.09;;;15.84;83.72
13952;BME280;39535;52.192;9.886;2022-10-16T09:16:14;100697.41;;;15.87;83.72
13952;BME280;39535;52.192;9.886;2022-10-16T09:18:50;100678.03;;;15.90;83.52
13952;BME280;39535;52.192;9.886;2022-10-16T09:21:20;100693.78;;;15.92;83.35
13952;BME280;39535;52.192;9.886;2022-10-16T09:23:47;100708.94;;;15.85;83.03
13952;BME280;39535;52.192;9.886;2022-10-16T09:26:16;100726.69;;;15.80;81.54
13952;BME280;39535;52.192;9.886;2022-10-16T09:28:44;100717.69;;;15.85;82.74
13952;BME280;39535;52.192;9.886;2022-10-16T09:31:15;100707.94;;;15.87;82.79
13952;BME280;39535;52.192;9.886;2022-10-16T09:33:48;100729.94;;;15.86;81.34
13952;BME280;39535;52.192;9.886;2022-10-16T09:36:16;100737.66;;;15.91;81.47
13952;BME280;39535;52.192;9.886;2022-10-16T09:38:44;100734.88;;;15.96;81.34
13952;BME280;39535;52.192;9.886;2022-10-16T09:41:15;100741.66;;;16.01;81.30
13952;BME280;39535;52.192;9.886;2022-10-16T09:43:47;100754.69;;;16.06;81.54
13952;BME280;39535;52.192;9.886;2022-10-16T09:46:24;100763.25;;;16.11;80.90
13952;BME280;39535;52.192;9.886;2022-10-16T09:48:55;100775.53;;;16.12;80.56
13952;BME280;39535;52.192;9.886;2022-10-16T09:51:24;100764.72;;;16.20;81.56
13952;BME280;39535;52.192;9.886;2022-10-16T09:53:54;100747.94;;;16.22;81.86
13952;BME280;39535;52.192;9.886;2022-10-16T09:56:23;100737.16;;;16.28;81.82
13952;BME280;39535;52.192;9.886;2022-10-16T09:58:51;100779.22;;;16.32;80.14
13952;BME280;39535;52.192;9.886;2022-10-16T10:01:19;100793.94;;;16.37;80.02
13952;BME280;39535;52.192;9.886;2022-10-16T10:03:46;100830.00;;;16.35;77.43
13952;BME280;39535;52.192;9.886;2022-10-16T10:06:22;100869.34;;;16.40;78.24
13952;BME280;39535;52.192;9.886;2022-10-16T10:08:55;100852.50;;;16.44;78.43
13952;BME280;39535;52.192;9.886;2022-10-16T10:11:41;100883.16;;;16.46;77.61
13952;BME280;39535;52.192;9.886;2022-10-16T10:14:16;100914.69;;;16.50;76.41
13952;BME280;39535;52.192;9.886;2022-10-16T10:16:43;100961.91;;;16.56;74.40
13952;BME280;39535;52.192;9.886;2022-10-16T10:19:14;100986.44;;;16.58;73.99
13952;BME280;39535;52.192;9.886;2022-10-16T10:21:42;101003.81;;;16.63;73.68
13952;BME280;39535;52.192;9.886;2022-10-16T10:24:11;101042.28;;;16.69;72.87
13952;BME280;39535;52.192;9.886;2022-10-16T10:26:38;101068.47;;;16.74;72.29
13952;BME280;39535;52.192;9.886;2022-10-16T10:29:14;101047.25;;;16.77;71.15
13952;BME280;39535;52.192;9.886;2022-10-16T10:31:46;101083.13;;;16.82;70.83
13952;BME280;39535;52.192;9.886;2022-10-16T10:34:25;101120.00;;;16.84;70.35
13952;BME280;39535;52.192;9.886;2022-10-16T10:37:00;101106.56;;;16.92;71.79
13952;BME280;39535;52.192;9.886;2022-10-16T10:39:33;101089.84;;;16.93;71.70
13952;BME280;39535;52.192;9.886;2022-10-16T10:42:11;101077.06;;;17.05;70.87
13952;BME280;39535;52.192;9.886;2022-10-16T10:44:57;101117.69;;;17.25;70.02
13952;BME280;39535;52.192;9.886;2022-10-16T10:47:36;101114.56;;;17.39;70.10
13952;BME280;39535;52.192;9.886;2022-10-16T10:50:14;101146.19;;;17.40;69.78
13952;BME280;39535;52.192;9.886;2022-10-16T10:52:53;101163.78;;;17.40;68.30
13952;BME280;39535;52.192;9.886;2022-10-16T10:55:28;101176.94;;;17.41;67.89
13952;BME280;39535;52.192;9.886;2022-10-16T10:58:15;101199.91;;;17.38;68.01
13952;BME280;39535;52.192;9.886;2022-10-16T11:00:51;101201.88;;;17.33;67.82
13952;BME280;39535;52.192;9.886;2022-10-16T11:03:33;101228.13;;;17.11;67.24
13952;BME280;39535;52.192;9.886;2022-10-16T11:06:05;101236.56;;;16.95;67.01
13952;BME280;39535;52.192;9.886;2022-10-16T11:08:36;101226.19;;;16.89;67.45
13952;BME280;39535;52.192;9.886;2022-10-16T11:11:10;101191.59;;;16.98;68.28
13952;BME280;39535;52.192;9.886;2022-10-16T11:13:43;101177.56;;;16.98;67.89
13952;BME280;39535;52.192;9.886;2022-10-16T11:16:17;101172.09;;;17.02;67.83
13952;BME280;39535;52.192;9.886;2022-10-16T11:18:50;101177.81;;;17.17;67.79
13952;BME280;39535;52.192;9.886;2022-10-16T11:21:19;101158.09;;;17.27;67.60
13952;BME280;39535;52.192;9.886;2022-10-16T11:23:53;101197.41;;;17.35;66.39
13952;BME280;39535;52.192;9.886;2022-10-16T11:26:24;101217.28;;;17.45;66.41
13952;BME280;39535;52.192;9.886;2022-10-16T11:28:54;101216.28;;;17.47;65.22
13952;BME280;39535;52.192;9.886;2022-10-16T11:31:27;101285.59;;;17.54;64.07
13952;BME280;39535;52.192;9.886;2022-10-16T11:34:01;101300.34;;;17.60;63.89
13952;BME280;39535;52.192;9.886;2022-10-16T11:36:33;101327.72;;;17.57;63.55
13952;BME280;39535;52.192;9.886;2022-10-16T11:39:11;101322.34;;;17.60;63.48
13952;BME280;39535;52.192;9.886;2022-10-16T11:41:45;101321.97;;;17.71;64.13
13952;BME280;39535;52.192;9.886;2022-10-16T11:44:27;101329.72;;;17.76;63.37
13952;BME280;39535;52.192;9.886;2022-10-16T11:47:08;101332.25;;;17.79;62.50
13952;BME280;39535;52.192;9.886;2022-10-16T11:49:37;101398.88;;;17.89;61.16
13952;BME280;39535;52.192;9.886;2022-10-16T11:52:10;101436.84;;;18.11;59.64
13952;BME280;39535;52.192;9.886;2022-10-16T11:54:47;101482.03;;;18.30;59.27
13952;BME280;39535;52.192;9.886;2022-10-16T11:57:18;101490.44;;;18.41;59.09
13952;BME280;39535;52.192;9.886;2022-10-16T11:59:48;101471.56;;;18.52;58.10
13952;BME280;39535;52.192;9.886;2022-10-16T12:02:28;101502.53;;;18.74;58.60
13952;BME280;39535;52.192;9.886;2022-10-16T12:05:05;101528.81;;;19.03;57.43
13952;BME280;39535;52.192;9.886;2022-10-16T12:07:36;101564.06;;;19.76;55.73
13952;BME280;39535;52.192;9.886;2022-10-16T12:10:20;101652.31;;;20.44;52.23
13952;BME280;39535;52.192;9.886;2022-10-16T12:12:47;101708.59;;;21.38;50.74
13952;BME280;39535;52.192;9.886;2022-10-16T12:15:23;101778.28;;;22.24;49.60
13952;BME280;39535;52.192;9.886;2022-10-16T12:17:50;101847.09;;;21.51;49.33
13952;BME280;39535;52.192;9.886;2022-10-16T12:20:22;101821.06;;;21.79;50.22
13952;BME280;39535;52.192;9.886;2022-10-16T12:22:52;101819.84;;;21.66;49.19
13952;BME280;39535;52.192;9.886;2022-10-16T12:25:25;101821.13;;;21.57;48.94
13952;BME280;39535;52.192;9.886;2022-10-16T12:27:55;101793.75;;;21.96;48.12
13952;BME280;39535;52.192;9.886;2022-10-16T12:30:24;101818.34;;;21.81;48.58
13952;BME280;39535;52.192;9.886;2022-10-16T12:32:55;101809.31;;;22.25;48.25
13952;BME280;39535;52.192;9.886;2022-10-16T12:35:24;101780.69;;;22.68;46.65
13952;BME280;39535;52.192;9.886;2022-10-16T12:37:51;101811.06;;;22.64;47.63
13952;BME280;39535;52.192;9.886;2022-10-16T12:40:28;101813.22;;;22.16;47.00
13952;BME280;39535;52.192;9.886;2022-10-16T12:42:56;101806.84;;;21.17;48.84
13952;BME280;39535;52.192;9.886;2022-10-16T12:45:28;101736.56;;;20.61;49.20
13952;BME280;39535;52.192;9.886;2022-10-16T12:47:57;101696.41;;;20.47;50.55
13952;BME280;39535;52.192;9.886;2022-10-16T12:50:32;101650.84;;;20.15;51.74
13952;BME280;39535;52.192;9.886;2022-10-16T12:53:00;101588.25;;;20.11;52.02
13952;BME280;39535;52.192;9.886;2022-10-16T12:55:34;101577.72;;;19.64;52.75
13952;BME280;39535;52.192;9.886;2022-10-16T12:58:11;101521.22;;;19.63;52.23
13952;BME280;39535;52.192;9.886;2022-10-16T13:00:45;101572.50;;;19.62;51.76
13952;BME280;39535;52.192;9.886;2022-10-16T13:03:40;101589.44;;;19.35;52.48